Main page
METAR-TAF:

Airports :

Current weather observation

The report was made 33 minutes ago, at 12:00 UTC
Wind 8 kt from the West/Northwest, varying between West/Southwest and North
Temperature 38°C
Humidity 5%
Pressure 1007 hPa
Visibility 10 km or more
no clouds below 1500 m and no cumulonimbus

METAR: OTBD 021200Z 29008KT 250V350 CAVOK 38/M07 Q1007 NOSIG

Time: 12:33 (12:33 UTC)

Forecast

The report was made 1 hour and 33 minutes ago, at 11:00 UTC
Forecast valid from 02 at 12 UTC to 03 at 18 UTC
Wind 8 kt from the East
Visibility 10 km or more
no clouds below 1500 m and no cumulonimbus
Becoming
from 02 at 17 UTC to 02 at 19 UTC
Wind 4 kt from the South
Becoming
from 03 at 08 UTC to 03 at 10 UTC
Wind 9 kt from the West
Becoming
from 03 at 12 UTC to 03 at 14 UTC
Wind 8 kt from the East

TAF: OTBD 021100Z 0212/0318 09008KT CAVOK BECMG 0217/0219 17004KT BECMG 0308/0310 28009KT BECMG 0312/0314 09008KT

METAR-TAF

Weather observations and forecasts of more than 4000 airports (METAR and TAF reports).

The available stations are represented by yellow and red dots on the map.

Hover mouse over dot to see the name of the station.

Then click to see weather observations and forecasts.

To change the map : click on the green buttons with a black cross to zoom in, on the green button with a dash to zoom out, or on the green arrows for adjacent maps.


METAR-TAF: